sensor_id;sensor_type;location;lat;lon;timestamp;P1;durP1;ratioP1;P2;durP2;ratioP2
64498;SDS011;51087;55.718;21.122;2023-08-07T00:01:42;8.82;;;7.72;;
64498;SDS011;51087;55.718;21.122;2023-08-07T00:04:08;10.70;;;7.80;;
64498;SDS011;51087;55.718;21.122;2023-08-07T00:06:33;12.40;;;7.53;;
64498;SDS011;51087;55.718;21.122;2023-08-07T00:08:59;9.98;;;7.13;;
64498;SDS011;51087;55.718;21.122;2023-08-07T00:11:24;9.73;;;7.32;;
64498;SDS011;51087;55.718;21.122;2023-08-07T00:13:50;12.40;;;7.32;;
64498;SDS011;51087;55.718;21.122;2023-08-07T00:16:15;10.95;;;7.78;;
64498;SDS011;51087;55.718;21.122;2023-08-07T00:18:41;14.00;;;9.05;;
64498;SDS011;51087;55.718;21.122;2023-08-07T00:21:06;12.68;;;7.50;;
64498;SDS011;51087;55.718;21.122;2023-08-07T00:23:32;11.45;;;8.27;;
64498;SDS011;51087;55.718;21.122;2023-08-07T00:25:57;12.60;;;7.93;;
64498;SDS011;51087;55.718;21.122;2023-08-07T00:28:22;11.85;;;7.35;;
64498;SDS011;51087;55.718;21.122;2023-08-07T00:30:48;10.10;;;7.53;;
64498;SDS011;51087;55.718;21.122;2023-08-07T00:33:13;11.82;;;7.85;;
64498;SDS011;51087;55.718;21.122;2023-08-07T00:35:38;13.52;;;8.20;;
64498;SDS011;51087;55.718;21.122;2023-08-07T00:38:04;12.18;;;7.95;;
64498;SDS011;51087;55.718;21.122;2023-08-07T00:40:35;15.38;;;7.93;;
64498;SDS011;51087;55.718;21.122;2023-08-07T00:43:02;12.37;;;7.50;;
64498;SDS011;51087;55.718;21.122;2023-08-07T00:45:28;11.95;;;7.35;;
64498;SDS011;51087;55.718;21.122;2023-08-07T00:47:53;11.38;;;8.27;;
64498;SDS011;51087;55.718;21.122;2023-08-07T00:50:19;12.48;;;7.80;;
64498;SDS011;51087;55.718;21.122;2023-08-07T00:52:44;12.02;;;8.55;;
64498;SDS011;51087;55.718;21.122;2023-08-07T00:55:10;11.68;;;7.85;;
64498;SDS011;51087;55.718;21.122;2023-08-07T00:57:35;12.68;;;7.85;;
64498;SDS011;51087;55.718;21.122;2023-08-07T01:00:02;13.77;;;8.02;;
64498;SDS011;51087;55.718;21.122;2023-08-07T01:02:27;13.95;;;8.50;;
64498;SDS011;51087;55.718;21.122;2023-08-07T01:04:53;10.15;;;7.43;;
64498;SDS011;51087;55.718;21.122;2023-08-07T01:07:19;9.50;;;7.60;;
64498;SDS011;51087;55.718;21.122;2023-08-07T01:09:44;10.38;;;7.72;;
64498;SDS011;51087;55.718;21.122;2023-08-07T01:12:16;11.05;;;8.00;;
64498;SDS011;51087;55.718;21.122;2023-08-07T01:14:53;10.43;;;7.80;;
64498;SDS011;51087;55.718;21.122;2023-08-07T01:17:57;13.25;;;8.00;;
64498;SDS011;51087;55.718;21.122;2023-08-07T01:20:24;10.80;;;7.97;;
64498;SDS011;51087;55.718;21.122;2023-08-07T01:22:50;12.77;;;7.53;;
64498;SDS011;51087;55.718;21.122;2023-08-07T01:25:15;10.77;;;7.50;;
64498;SDS011;51087;55.718;21.122;2023-08-07T01:30:31;11.75;;;7.57;;
64498;SDS011;51087;55.718;21.122;2023-08-07T01:35:57;13.38;;;8.05;;
64498;SDS011;51087;55.718;21.122;2023-08-07T01:38:25;10.07;;;7.88;;
64498;SDS011;51087;55.718;21.122;2023-08-07T01:40:52;10.80;;;8.35;;
64498;SDS011;51087;55.718;21.122;2023-08-07T01:43:18;14.80;;;8.80;;
64498;SDS011;51087;55.718;21.122;2023-08-07T01:45:44;12.95;;;8.55;;
64498;SDS011;51087;55.718;21.122;2023-08-07T01:48:10;11.48;;;8.63;;
64498;SDS011;51087;55.718;21.122;2023-08-07T01:50:36;11.52;;;7.85;;
64498;SDS011;51087;55.718;21.122;2023-08-07T01:53:03;12.85;;;8.95;;
64498;SDS011;51087;55.718;21.122;2023-08-07T01:55:29;12.25;;;8.80;;
64498;SDS011;51087;55.718;21.122;2023-08-07T01:57:54;11.95;;;9.20;;
64498;SDS011;51087;55.718;21.122;2023-08-07T02:00:20;11.48;;;8.55;;
64498;SDS011;51087;55.718;21.122;2023-08-07T02:02:46;13.85;;;9.48;;
64498;SDS011;51087;55.718;21.122;2023-08-07T02:05:12;12.15;;;8.95;;
64498;SDS011;51087;55.718;21.122;2023-08-07T02:07:38;13.80;;;9.07;;
64498;SDS011;51087;55.718;21.122;2023-08-07T02:10:03;15.43;;;10.30;;
64498;SDS011;51087;55.718;21.122;2023-08-07T02:12:29;13.38;;;9.65;;
64498;SDS011;51087;55.718;21.122;2023-08-07T02:14:57;13.50;;;9.50;;
64498;SDS011;51087;55.718;21.122;2023-08-07T02:17:24;11.68;;;9.43;;
64498;SDS011;51087;55.718;21.122;2023-08-07T02:19:50;10.40;;;9.27;;
64498;SDS011;51087;55.718;21.122;2023-08-07T02:22:15;15.65;;;9.35;;
64498;SDS011;51087;55.718;21.122;2023-08-07T02:24:40;11.13;;;8.88;;
64498;SDS011;51087;55.718;21.122;2023-08-07T02:27:06;12.65;;;9.27;;
64498;SDS011;51087;55.718;21.122;2023-08-07T02:29:31;13.73;;;9.10;;
64498;SDS011;51087;55.718;21.122;2023-08-07T02:31:59;11.82;;;9.55;;
64498;SDS011;51087;55.718;21.122;2023-08-07T02:34:25;10.68;;;8.77;;
64498;SDS011;51087;55.718;21.122;2023-08-07T02:36:50;12.93;;;9.73;;
64498;SDS011;51087;55.718;21.122;2023-08-07T02:39:16;13.55;;;9.20;;
64498;SDS011;51087;55.718;21.122;2023-08-07T02:41:41;15.70;;;9.15;;
64498;SDS011;51087;55.718;21.122;2023-08-07T02:44:07;12.30;;;9.25;;
64498;SDS011;51087;55.718;21.122;2023-08-07T02:46:32;15.00;;;10.15;;
64498;SDS011;51087;55.718;21.122;2023-08-07T02:49:00;12.00;;;9.27;;
64498;SDS011;51087;55.718;21.122;2023-08-07T02:51:26;14.95;;;9.30;;
64498;SDS011;51087;55.718;21.122;2023-08-07T02:53:52;13.07;;;9.52;;
64498;SDS011;51087;55.718;21.122;2023-08-07T02:56:17;13.55;;;9.75;;
64498;SDS011;51087;55.718;21.122;2023-08-07T02:58:43;13.38;;;10.18;;
64498;SDS011;51087;55.718;21.122;2023-08-07T03:01:08;16.85;;;9.95;;
64498;SDS011;51087;55.718;21.122;2023-08-07T03:03:34;17.30;;;10.45;;
64498;SDS011;51087;55.718;21.122;2023-08-07T03:05:59;16.80;;;10.18;;
64498;SDS011;51087;55.718;21.122;2023-08-07T03:08:25;14.20;;;10.10;;
64498;SDS011;51087;55.718;21.122;2023-08-07T03:10:53;14.07;;;10.13;;
64498;SDS011;51087;55.718;21.122;2023-08-07T03:13:23;13.23;;;10.57;;
64498;SDS011;51087;55.718;21.122;2023-08-07T03:15:50;15.40;;;11.05;;
64498;SDS011;51087;55.718;21.122;2023-08-07T03:18:16;19.38;;;10.00;;
64498;SDS011;51087;55.718;21.122;2023-08-07T03:20:42;15.88;;;11.05;;
64498;SDS011;51087;55.718;21.122;2023-08-07T03:23:08;12.95;;;10.73;;
64498;SDS011;51087;55.718;21.122;2023-08-07T03:25:34;15.13;;;10.35;;
64498;SDS011;51087;55.718;21.122;2023-08-07T03:27:59;16.15;;;11.00;;
64498;SDS011;51087;55.718;21.122;2023-08-07T03:30:25;13.05;;;10.90;;
64498;SDS011;51087;55.718;21.122;2023-08-07T03:32:50;15.52;;;11.00;;
64498;SDS011;51087;55.718;21.122;2023-08-07T03:35:15;16.42;;;11.35;;
64498;SDS011;51087;55.718;21.122;2023-08-07T03:37:41;20.60;;;11.25;;
64498;SDS011;51087;55.718;21.122;2023-08-07T03:40:06;14.75;;;10.82;;
64498;SDS011;51087;55.718;21.122;2023-08-07T03:42:32;13.02;;;11.15;;
64498;SDS011;51087;55.718;21.122;2023-08-07T03:44:58;17.15;;;11.60;;
64498;SDS011;51087;55.718;21.122;2023-08-07T03:47:23;16.13;;;11.25;;
64498;SDS011;51087;55.718;21.122;2023-08-07T03:49:49;13.15;;;10.90;;
64498;SDS011;51087;55.718;21.122;2023-08-07T03:52:14;13.57;;;10.57;;
64498;SDS011;51087;55.718;21.122;2023-08-07T03:54:40;17.27;;;10.68;;
64498;SDS011;51087;55.718;21.122;2023-08-07T03:57:05;16.90;;;10.10;;
64498;SDS011;51087;55.718;21.122;2023-08-07T03:59:31;14.43;;;9.82;;
64498;SDS011;51087;55.718;21.122;2023-08-07T04:01:56;13.07;;;9.18;;
64498;SDS011;51087;55.718;21.122;2023-08-07T04:04:21;15.85;;;9.27;;
64498;SDS011;51087;55.718;21.122;2023-08-07T04:06:47;13.13;;;9.68;;
64498;SDS011;51087;55.718;21.122;2023-08-07T04:09:12;14.32;;;10.13;;
64498;SDS011;51087;55.718;21.122;2023-08-07T04:11:38;11.15;;;9.57;;
64498;SDS011;51087;55.718;21.122;2023-08-07T04:14:05;16.90;;;9.32;;
64498;SDS011;51087;55.718;21.122;2023-08-07T04:16:30;18.48;;;9.55;;
64498;SDS011;51087;55.718;21.122;2023-08-07T04:18:56;11.85;;;9.38;;
64498;SDS011;51087;55.718;21.122;2023-08-07T04:21:22;13.45;;;9.68;;
64498;SDS011;51087;55.718;21.122;2023-08-07T04:23:47;13.52;;;9.93;;
64498;SDS011;51087;55.718;21.122;2023-08-07T04:26:12;13.45;;;8.90;;
64498;SDS011;51087;55.718;21.122;2023-08-07T04:28:39;14.57;;;9.23;;
64498;SDS011;51087;55.718;21.122;2023-08-07T04:31:04;11.82;;;8.63;;
64498;SDS011;51087;55.718;21.122;2023-08-07T04:33:30;13.13;;;9.75;;
64498;SDS011;51087;55.718;21.122;2023-08-07T04:35:55;13.50;;;9.35;;
64498;SDS011;51087;55.718;21.122;2023-08-07T04:38:22;14.85;;;8.57;;
64498;SDS011;51087;55.718;21.122;2023-08-07T04:40:50;16.25;;;9.00;;
64498;SDS011;51087;55.718;21.122;2023-08-07T04:43:17;13.05;;;9.10;;
64498;SDS011;51087;55.718;21.122;2023-08-07T04:45:43;12.35;;;9.68;;
64498;SDS011;51087;55.718;21.122;2023-08-07T04:48:10;13.73;;;9.38;;
64498;SDS011;51087;55.718;21.122;2023-08-07T04:50:36;14.25;;;9.48;;
64498;SDS011;51087;55.718;21.122;2023-08-07T04:53:02;13.05;;;9.63;;
64498;SDS011;51087;55.718;21.122;2023-08-07T04:55:28;11.05;;;7.80;;
64498;SDS011;51087;55.718;21.122;2023-08-07T04:57:53;11.27;;;5.70;;
64498;SDS011;51087;55.718;21.122;2023-08-07T05:00:21;7.20;;;4.22;;
64498;SDS011;51087;55.718;21.122;2023-08-07T05:02:47;4.15;;;2.75;;
64498;SDS011;51087;55.718;21.122;2023-08-07T05:05:13;6.13;;;2.70;;
64498;SDS011;51087;55.718;21.122;2023-08-07T05:07:39;6.20;;;2.30;;
64498;SDS011;51087;55.718;21.122;2023-08-07T05:10:05;2.80;;;2.22;;
64498;SDS011;51087;55.718;21.122;2023-08-07T05:12:31;4.93;;;2.22;;
64498;SDS011;51087;55.718;21.122;2023-08-07T05:14:56;5.00;;;2.40;;
64498;SDS011;51087;55.718;21.122;2023-08-07T05:17:22;3.22;;;2.20;;
64498;SDS011;51087;55.718;21.122;2023-08-07T05:19:47;2.55;;;2.10;;
64498;SDS011;51087;55.718;21.122;2023-08-07T05:22:12;2.25;;;1.90;;
64498;SDS011;51087;55.718;21.122;2023-08-07T05:24:38;1.45;;;1.35;;
64498;SDS011;51087;55.718;21.122;2023-08-07T05:27:08;3.90;;;1.70;;
64498;SDS011;51087;55.718;21.122;2023-08-07T05:29:34;3.63;;;1.50;;
64498;SDS011;51087;55.718;21.122;2023-08-07T05:31:59;2.72;;;2.15;;
64498;SDS011;51087;55.718;21.122;2023-08-07T05:34:25;4.25;;;2.17;;
64498;SDS011;51087;55.718;21.122;2023-08-07T05:36:50;4.68;;;1.85;;
64498;SDS011;51087;55.718;21.122;2023-08-07T05:39:16;5.05;;;2.00;;
64498;SDS011;51087;55.718;21.122;2023-08-07T05:41:42;2.05;;;1.55;;
64498;SDS011;51087;55.718;21.122;2023-08-07T05:44:07;4.30;;;1.60;;
64498;SDS011;51087;55.718;21.122;2023-08-07T05:46:32;2.97;;;1.77;;
64498;SDS011;51087;55.718;21.122;2023-08-07T05:48:58;3.10;;;1.80;;
64498;SDS011;51087;55.718;21.122;2023-08-07T05:51:23;1.85;;;1.63;;
64498;SDS011;51087;55.718;21.122;2023-08-07T05:53:49;1.70;;;1.50;;
64498;SDS011;51087;55.718;21.122;2023-08-07T05:56:14;5.90;;;2.10;;
64498;SDS011;51087;55.718;21.122;2023-08-07T05:58:39;9.57;;;2.10;;
64498;SDS011;51087;55.718;21.122;2023-08-07T06:01:05;2.50;;;1.70;;
64498;SDS011;51087;55.718;21.122;2023-08-07T06:03:31;4.55;;;1.50;;
64498;SDS011;51087;55.718;21.122;2023-08-07T06:05:57;3.33;;;0.95;;
64498;SDS011;51087;55.718;21.122;2023-08-07T06:08:22;4.25;;;1.30;;
64498;SDS011;51087;55.718;21.122;2023-08-07T06:10:47;3.55;;;1.25;;
64498;SDS011;51087;55.718;21.122;2023-08-07T06:13:13;5.28;;;1.25;;
64498;SDS011;51087;55.718;21.122;2023-08-07T06:15:38;2.75;;;1.02;;
64498;SDS011;51087;55.718;21.122;2023-08-07T06:18:04;3.08;;;0.93;;
64498;SDS011;51087;55.718;21.122;2023-08-07T06:20:29;5.47;;;1.20;;
64498;SDS011;51087;55.718;21.122;2023-08-07T06:22:55;3.47;;;0.98;;
64498;SDS011;51087;55.718;21.122;2023-08-07T06:25:20;4.18;;;1.00;;
64498;SDS011;51087;55.718;21.122;2023-08-07T06:27:46;1.48;;;0.70;;
64498;SDS011;51087;55.718;21.122;2023-08-07T06:30:11;3.97;;;0.90;;
64498;SDS011;51087;55.718;21.122;2023-08-07T06:32:39;2.97;;;0.70;;
64498;SDS011;51087;55.718;21.122;2023-08-07T06:35:05;2.13;;;0.70;;
64498;SDS011;51087;55.718;21.122;2023-08-07T06:37:30;1.67;;;0.70;;
64498;SDS011;51087;55.718;21.122;2023-08-07T06:39:56;3.75;;;0.70;;
64498;SDS011;51087;55.718;21.122;2023-08-07T06:42:22;2.63;;;0.40;;
64498;SDS011;51087;55.718;21.122;2023-08-07T06:44:47;4.60;;;0.63;;
64498;SDS011;51087;55.718;21.122;2023-08-07T06:47:13;3.55;;;0.70;;
64498;SDS011;51087;55.718;21.122;2023-08-07T06:49:38;2.97;;;0.70;;
64498;SDS011;51087;55.718;21.122;2023-08-07T06:52:04;11.10;;;0.90;;
64498;SDS011;51087;55.718;21.122;2023-08-07T06:54:30;7.07;;;0.80;;
64498;SDS011;51087;55.718;21.122;2023-08-07T06:56:55;5.30;;;0.70;;
64498;SDS011;51087;55.718;21.122;2023-08-07T06:59:21;3.50;;;0.80;;
64498;SDS011;51087;55.718;21.122;2023-08-07T07:01:46;4.82;;;0.70;;
64498;SDS011;51087;55.718;21.122;2023-08-07T07:04:12;3.50;;;0.60;;
64498;SDS011;51087;55.718;21.122;2023-08-07T07:06:37;5.30;;;0.82;;
64498;SDS011;51087;55.718;21.122;2023-08-07T07:09:03;8.02;;;0.90;;
64498;SDS011;51087;55.718;21.122;2023-08-07T07:11:28;2.92;;;0.60;;
64498;SDS011;51087;55.718;21.122;2023-08-07T07:13:54;1.17;;;0.50;;
64498;SDS011;51087;55.718;21.122;2023-08-07T07:16:21;2.70;;;0.50;;
64498;SDS011;51087;55.718;21.122;2023-08-07T07:18:47;2.40;;;0.50;;
64498;SDS011;51087;55.718;21.122;2023-08-07T07:21:14;2.70;;;0.52;;
64498;SDS011;51087;55.718;21.122;2023-08-07T07:23:40;4.85;;;0.65;;
64498;SDS011;51087;55.718;21.122;2023-08-07T07:26:05;1.13;;;0.30;;
64498;SDS011;51087;55.718;21.122;2023-08-07T07:28:30;2.90;;;0.50;;
64498;SDS011;51087;55.718;21.122;2023-08-07T07:30:56;1.42;;;0.50;;
64498;SDS011;51087;55.718;21.122;2023-08-07T07:33:22;0.85;;;0.50;;
64498;SDS011;51087;55.718;21.122;2023-08-07T07:35:48;2.15;;;0.45;;
64498;SDS011;51087;55.718;21.122;2023-08-07T07:38:13;1.88;;;0.50;;
64498;SDS011;51087;55.718;21.122;2023-08-07T07:40:40;2.20;;;0.43;;
64498;SDS011;51087;55.718;21.122;2023-08-07T07:43:06;1.98;;;0.50;;
64498;SDS011;51087;55.718;21.122;2023-08-07T07:45:31;3.70;;;0.45;;
64498;SDS011;51087;55.718;21.122;2023-08-07T07:47:59;2.10;;;0.52;;
64498;SDS011;51087;55.718;21.122;2023-08-07T07:50:24;1.70;;;0.50;;
64498;SDS011;51087;55.718;21.122;2023-08-07T07:52:49;0.82;;;0.43;;
64498;SDS011;51087;55.718;21.122;2023-08-07T07:55:15;2.00;;;0.43;;
64498;SDS011;51087;55.718;21.122;2023-08-07T07:57:41;2.47;;;1.20;;
64498;SDS011;51087;55.718;21.122;2023-08-07T08:00:06;2.78;;;0.45;;
64498;SDS011;51087;55.718;21.122;2023-08-07T08:02:36;2.17;;;0.50;;
64498;SDS011;51087;55.718;21.122;2023-08-07T08:05:01;3.92;;;0.50;;
64498;SDS011;51087;55.718;21.122;2023-08-07T08:07:27;1.67;;;0.50;;
64498;SDS011;51087;55.718;21.122;2023-08-07T08:09:52;0.93;;;0.30;;
64498;SDS011;51087;55.718;21.122;2023-08-07T08:12:18;3.22;;;0.60;;
64498;SDS011;51087;55.718;21.122;2023-08-07T08:14:43;3.17;;;0.70;;
64498;SDS011;51087;55.718;21.122;2023-08-07T08:17:09;2.83;;;0.47;;
64498;SDS011;51087;55.718;21.122;2023-08-07T08:19:34;2.75;;;0.60;;
64498;SDS011;51087;55.718;21.122;2023-08-07T08:22:00;0.98;;;0.50;;
64498;SDS011;51087;55.718;21.122;2023-08-07T08:24:25;1.60;;;0.50;;
64498;SDS011;51087;55.718;21.122;2023-08-07T08:26:51;2.22;;;0.63;;
64498;SDS011;51087;55.718;21.122;2023-08-07T08:29:16;3.13;;;0.60;;
64498;SDS011;51087;55.718;21.122;2023-08-07T08:31:42;1.58;;;0.50;;
64498;SDS011;51087;55.718;21.122;2023-08-07T08:34:07;1.90;;;0.50;;
64498;SDS011;51087;55.718;21.122;2023-08-07T08:36:33;2.63;;;0.60;;
64498;SDS011;51087;55.718;21.122;2023-08-07T08:38:58;2.55;;;0.70;;
64498;SDS011;51087;55.718;21.122;2023-08-07T08:41:24;2.50;;;0.57;;
64498;SDS011;51087;55.718;21.122;2023-08-07T08:43:51;1.48;;;0.52;;
64498;SDS011;51087;55.718;21.122;2023-08-07T08:46:20;2.92;;;0.70;;
64498;SDS011;51087;55.718;21.122;2023-08-07T08:48:49;3.70;;;0.50;;
64498;SDS011;51087;55.718;21.122;2023-08-07T08:51:16;3.28;;;0.70;;
64498;SDS011;51087;55.718;21.122;2023-08-07T08:53:44;17.63;;;2.13;;
64498;SDS011;51087;55.718;21.122;2023-08-07T08:56:10;29.33;;;3.20;;
64498;SDS011;51087;55.718;21.122;2023-08-07T08:58:36;2.42;;;0.70;;
64498;SDS011;51087;55.718;21.122;2023-08-07T09:01:03;3.53;;;0.60;;
64498;SDS011;51087;55.718;21.122;2023-08-07T09:03:30;1.67;;;0.60;;
64498;SDS011;51087;55.718;21.122;2023-08-07T09:05:57;1.60;;;0.57;;
64498;SDS011;51087;55.718;21.122;2023-08-07T09:08:25;1.98;;;0.80;;
64498;SDS011;51087;55.718;21.122;2023-08-07T09:10:54;1.42;;;0.60;;
64498;SDS011;51087;55.718;21.122;2023-08-07T09:13:20;2.92;;;0.60;;
64498;SDS011;51087;55.718;21.122;2023-08-07T09:15:49;3.33;;;0.80;;
64498;SDS011;51087;55.718;21.122;2023-08-07T09:18:16;1.08;;;0.60;;
64498;SDS011;51087;55.718;21.122;2023-08-07T09:20:42;1.08;;;0.50;;
64498;SDS011;51087;55.718;21.122;2023-08-07T09:23:08;1.27;;;0.70;;
64498;SDS011;51087;55.718;21.122;2023-08-07T09:25:34;3.65;;;0.70;;
64498;SDS011;51087;55.718;21.122;2023-08-07T09:28:06;3.53;;;0.73;;
64498;SDS011;51087;55.718;21.122;2023-08-07T09:30:32;0.70;;;0.45;;
64498;SDS011;51087;55.718;21.122;2023-08-07T09:33:00;1.13;;;0.80;;
64498;SDS011;51087;55.718;21.122;2023-08-07T09:35:27;3.15;;;0.60;;
64498;SDS011;51087;55.718;21.122;2023-08-07T09:37:54;0.70;;;0.60;;
64498;SDS011;51087;55.718;21.122;2023-08-07T09:40:22;2.05;;;0.60;;
64498;SDS011;51087;55.718;21.122;2023-08-07T09:42:53;2.25;;;0.80;;
64498;SDS011;51087;55.718;21.122;2023-08-07T09:45:25;1.20;;;0.60;;
64498;SDS011;51087;55.718;21.122;2023-08-07T09:47:58;0.73;;;0.60;;
64498;SDS011;51087;55.718;21.122;2023-08-07T09:50:27;2.15;;;0.70;;
64498;SDS011;51087;55.718;21.122;2023-08-07T09:52:53;1.77;;;0.77;;
64498;SDS011;51087;55.718;21.122;2023-08-07T09:55:20;1.10;;;0.90;;
64498;SDS011;51087;55.718;21.122;2023-08-07T09:57:46;1.05;;;0.70;;
64498;SDS011;51087;55.718;21.122;2023-08-07T10:00:13;1.25;;;0.80;;
64498;SDS011;51087;55.718;21.122;2023-08-07T10:02:44;1.05;;;0.70;;
64498;SDS011;51087;55.718;21.122;2023-08-07T10:05:11;1.63;;;0.90;;
64498;SDS011;51087;55.718;21.122;2023-08-07T10:07:38;4.20;;;0.90;;
64498;SDS011;51087;55.718;21.122;2023-08-07T10:10:04;2.35;;;0.90;;
64498;SDS011;51087;55.718;21.122;2023-08-07T10:12:31;5.50;;;1.00;;
64498;SDS011;51087;55.718;21.122;2023-08-07T10:14:58;2.42;;;0.90;;
64498;SDS011;51087;55.718;21.122;2023-08-07T10:17:24;2.22;;;1.08;;
64498;SDS011;51087;55.718;21.122;2023-08-07T10:19:50;3.95;;;1.00;;
64498;SDS011;51087;55.718;21.122;2023-08-07T10:22:16;5.63;;;1.05;;
64498;SDS011;51087;55.718;21.122;2023-08-07T10:24:47;6.88;;;1.30;;
64498;SDS011;51087;55.718;21.122;2023-08-07T10:27:13;8.93;;;1.20;;
64498;SDS011;51087;55.718;21.122;2023-08-07T10:29:42;1.92;;;1.10;;
64498;SDS011;51087;55.718;21.122;2023-08-07T10:32:09;0.60;;;0.60;;
64498;SDS011;51087;55.718;21.122;2023-08-07T10:34:36;1.70;;;0.57;;
64498;SDS011;51087;55.718;21.122;2023-08-07T10:37:05;2.67;;;0.68;;
64498;SDS011;51087;55.718;21.122;2023-08-07T10:39:31;0.70;;;0.60;;
64498;SDS011;51087;55.718;21.122;2023-08-07T10:41:57;3.38;;;0.75;;
64498;SDS011;51087;55.718;21.122;2023-08-07T10:44:23;1.77;;;0.68;;
64498;SDS011;51087;55.718;21.122;2023-08-07T10:46:53;1.38;;;0.70;;
64498;SDS011;51087;55.718;21.122;2023-08-07T10:49:36;0.90;;;0.57;;
64498;SDS011;51087;55.718;21.122;2023-08-07T10:52:03;1.02;;;0.50;;
64498;SDS011;51087;55.718;21.122;2023-08-07T10:54:37;0.65;;;0.50;;
64498;SDS011;51087;55.718;21.122;2023-08-07T10:57:09;0.52;;;0.50;;
64498;SDS011;51087;55.718;21.122;2023-08-07T10:59:37;2.17;;;0.68;;
64498;SDS011;51087;55.718;21.122;2023-08-07T11:02:02;0.85;;;0.68;;
64498;SDS011;51087;55.718;21.122;2023-08-07T11:04:32;0.85;;;0.60;;
64498;SDS011;51087;55.718;21.122;2023-08-07T11:07:01;5.57;;;0.60;;
64498;SDS011;51087;55.718;21.122;2023-08-07T11:09:27;3.58;;;0.45;;
64498;SDS011;51087;55.718;21.122;2023-08-07T11:11:52;1.90;;;0.60;;
64498;SDS011;51087;55.718;21.122;2023-08-07T11:14:18;2.60;;;0.70;;
64498;SDS011;51087;55.718;21.122;2023-08-07T11:16:45;2.95;;;0.60;;
64498;SDS011;51087;55.718;21.122;2023-08-07T11:19:16;1.65;;;0.77;;
64498;SDS011;51087;55.718;21.122;2023-08-07T11:21:42;1.13;;;0.60;;
64498;SDS011;51087;55.718;21.122;2023-08-07T11:24:08;1.92;;;0.60;;
64498;SDS011;51087;55.718;21.122;2023-08-07T11:26:37;1.52;;;0.77;;
64498;SDS011;51087;55.718;21.122;2023-08-07T11:29:03;2.35;;;0.70;;
64498;SDS011;51087;55.718;21.122;2023-08-07T11:31:28;2.53;;;0.75;;
64498;SDS011;51087;55.718;21.122;2023-08-07T11:33:57;1.17;;;0.70;;
64498;SDS011;51087;55.718;21.122;2023-08-07T11:36:23;4.03;;;0.75;;
64498;SDS011;51087;55.718;21.122;2023-08-07T11:38:49;2.60;;;0.70;;
64498;SDS011;51087;55.718;21.122;2023-08-07T11:41:16;1.08;;;0.60;;
64498;SDS011;51087;55.718;21.122;2023-08-07T11:43:42;2.80;;;0.73;;
64498;SDS011;51087;55.718;21.122;2023-08-07T11:46:09;3.05;;;0.60;;
64498;SDS011;51087;55.718;21.122;2023-08-07T11:48:36;0.82;;;0.68;;
64498;SDS011;51087;55.718;21.122;2023-08-07T11:51:03;1.95;;;0.40;;
64498;SDS011;51087;55.718;21.122;2023-08-07T11:53:33;1.88;;;0.70;;
64498;SDS011;51087;55.718;21.122;2023-08-07T11:56:02;1.08;;;0.70;;
64498;SDS011;51087;55.718;21.122;2023-08-07T11:58:36;1.02;;;0.60;;
64498;SDS011;51087;55.718;21.122;2023-08-07T12:01:09;1.75;;;0.60;;
64498;SDS011;51087;55.718;21.122;2023-08-07T12:03:36;3.25;;;0.73;;
64498;SDS011;51087;55.718;21.122;2023-08-07T12:06:06;1.60;;;0.63;;
64498;SDS011;51087;55.718;21.122;2023-08-07T12:08:34;1.98;;;0.60;;
64498;SDS011;51087;55.718;21.122;2023-08-07T12:11:08;2.17;;;0.68;;
64498;SDS011;51087;55.718;21.122;2023-08-07T12:13:39;4.10;;;0.68;;
64498;SDS011;51087;55.718;21.122;2023-08-07T12:16:06;2.83;;;0.57;;
64498;SDS011;51087;55.718;21.122;2023-08-07T12:18:32;2.25;;;0.60;;
64498;SDS011;51087;55.718;21.122;2023-08-07T12:20:58;4.00;;;0.90;;
64498;SDS011;51087;55.718;21.122;2023-08-07T12:23:25;2.00;;;0.77;;
64498;SDS011;51087;55.718;21.122;2023-08-07T12:25:51;3.70;;;0.80;;
64498;SDS011;51087;55.718;21.122;2023-08-07T12:28:17;1.00;;;0.60;;
64498;SDS011;51087;55.718;21.122;2023-08-07T12:30:46;1.27;;;0.60;;
64498;SDS011;51087;55.718;21.122;2023-08-07T12:33:13;0.90;;;0.60;;
64498;SDS011;51087;55.718;21.122;2023-08-07T12:35:39;0.82;;;0.50;;
64498;SDS011;51087;55.718;21.122;2023-08-07T12:38:06;1.83;;;0.80;;
64498;SDS011;51087;55.718;21.122;2023-08-07T12:40:33;3.10;;;0.65;;
64498;SDS011;51087;55.718;21.122;2023-08-07T12:43:01;1.80;;;0.70;;
64498;SDS011;51087;55.718;21.122;2023-08-07T12:45:26;2.72;;;0.80;;
64498;SDS011;51087;55.718;21.122;2023-08-07T12:47:52;2.83;;;0.70;;
64498;SDS011;51087;55.718;21.122;2023-08-07T12:50:17;1.20;;;0.77;;
64498;SDS011;51087;55.718;21.122;2023-08-07T12:52:43;0.77;;;0.70;;
64498;SDS011;51087;55.718;21.122;2023-08-07T12:55:08;1.48;;;0.70;;
64498;SDS011;51087;55.718;21.122;2023-08-07T12:57:34;1.55;;;0.70;;
64498;SDS011;51087;55.718;21.122;2023-08-07T13:00:00;1.45;;;0.70;;
64498;SDS011;51087;55.718;21.122;2023-08-07T13:02:25;3.25;;;0.70;;
64498;SDS011;51087;55.718;21.122;2023-08-07T13:04:51;4.03;;;0.70;;
64498;SDS011;51087;55.718;21.122;2023-08-07T13:07:19;2.50;;;0.70;;
64498;SDS011;51087;55.718;21.122;2023-08-07T13:09:45;1.90;;;0.47;;
64498;SDS011;51087;55.718;21.122;2023-08-07T13:12:11;1.95;;;0.68;;
64498;SDS011;51087;55.718;21.122;2023-08-07T13:14:36;1.65;;;0.60;;
64498;SDS011;51087;55.718;21.122;2023-08-07T13:17:02;0.55;;;0.40;;
64498;SDS011;51087;55.718;21.122;2023-08-07T13:19:27;4.47;;;0.68;;
64498;SDS011;51087;55.718;21.122;2023-08-07T13:21:52;1.58;;;0.52;;
64498;SDS011;51087;55.718;21.122;2023-08-07T13:24:18;1.60;;;0.60;;
64498;SDS011;51087;55.718;21.122;2023-08-07T13:26:43;0.75;;;0.35;;
64498;SDS011;51087;55.718;21.122;2023-08-07T13:29:12;2.33;;;0.80;;
64498;SDS011;51087;55.718;21.122;2023-08-07T13:31:37;4.13;;;0.55;;
64498;SDS011;51087;55.718;21.122;2023-08-07T13:34:03;3.10;;;0.60;;
64498;SDS011;51087;55.718;21.122;2023-08-07T13:36:33;0.93;;;0.52;;
64498;SDS011;51087;55.718;21.122;2023-08-07T13:38:59;1.35;;;0.52;;
64498;SDS011;51087;55.718;21.122;2023-08-07T13:41:25;2.85;;;0.70;;
64498;SDS011;51087;55.718;21.122;2023-08-07T13:43:51;2.33;;;0.93;;
64498;SDS011;51087;55.718;21.122;2023-08-07T13:46:17;2.67;;;0.40;;
64498;SDS011;51087;55.718;21.122;2023-08-07T13:48:43;2.45;;;0.63;;
64498;SDS011;51087;55.718;21.122;2023-08-07T13:51:09;3.83;;;0.70;;
64498;SDS011;51087;55.718;21.122;2023-08-07T13:53:35;4.35;;;0.80;;
64498;SDS011;51087;55.718;21.122;2023-08-07T13:56:00;1.05;;;0.50;;
64498;SDS011;51087;55.718;21.122;2023-08-07T13:58:26;2.50;;;0.52;;
64498;SDS011;51087;55.718;21.122;2023-08-07T14:00:52;1.85;;;0.63;;
64498;SDS011;51087;55.718;21.122;2023-08-07T14:03:18;0.80;;;0.50;;
64498;SDS011;51087;55.718;21.122;2023-08-07T14:05:43;1.20;;;0.50;;
64498;SDS011;51087;55.718;21.122;2023-08-07T14:08:09;0.98;;;0.50;;
64498;SDS011;51087;55.718;21.122;2023-08-07T14:10:35;3.00;;;0.80;;
64498;SDS011;51087;55.718;21.122;2023-08-07T14:13:02;1.83;;;0.88;;
64498;SDS011;51087;55.718;21.122;2023-08-07T14:15:28;1.38;;;0.60;;
64498;SDS011;51087;55.718;21.122;2023-08-07T14:17:53;1.70;;;0.50;;
64498;SDS011;51087;55.718;21.122;2023-08-07T14:20:20;1.58;;;0.60;;
64498;SDS011;51087;55.718;21.122;2023-08-07T14:22:47;1.00;;;0.50;;
64498;SDS011;51087;55.718;21.122;2023-08-07T14:25:12;1.63;;;0.70;;
64498;SDS011;51087;55.718;21.122;2023-08-07T14:27:38;1.98;;;0.57;;
64498;SDS011;51087;55.718;21.122;2023-08-07T14:30:03;0.85;;;0.70;;